createdAt,value
2023-04-01T00:00:23.355Z,6.90
2023-04-01T00:02:51.357Z,5.10
2023-04-01T00:05:20.841Z,4.47
2023-04-01T00:07:48.881Z,5.33
2023-04-01T00:10:16.614Z,6.63
2023-04-01T00:12:45.164Z,5.27
2023-04-01T00:15:14.119Z,6.10
2023-04-01T00:17:41.920Z,3.80
2023-04-01T00:20:10.578Z,5.97
2023-04-01T00:22:39.777Z,3.57
2023-04-01T00:25:08.076Z,4.23
2023-04-01T00:27:35.810Z,5.27
2023-04-01T00:30:03.585Z,6.77
2023-04-01T00:32:31.601Z,4.30
2023-04-01T00:35:00.520Z,4.60
2023-04-01T00:37:28.881Z,8.60
2023-04-01T00:39:58.674Z,9.27
2023-04-01T00:42:26.766Z,5.30
2023-04-01T00:44:56.391Z,3.30
2023-04-01T00:47:25.956Z,3.53
2023-04-01T00:49:56.178Z,5.30
2023-04-01T00:52:27.048Z,4.07
2023-04-01T00:55:02.092Z,3.43
2023-04-01T00:57:34.243Z,3.87
2023-04-01T01:00:02.049Z,5.97
2023-04-01T01:02:30.069Z,6.37
2023-04-01T01:04:57.828Z,9.67
2023-04-01T01:07:34.683Z,4.03
2023-04-01T01:10:06.958Z,3.97
2023-04-01T01:12:42.060Z,5.83
2023-04-01T01:15:18.744Z,5.57
2023-04-01T01:17:55.926Z,4.23
2023-04-01T01:20:47.908Z,3.97
2023-04-01T01:23:45.605Z,6.73
2023-04-01T01:26:40.749Z,7.10
2023-04-01T01:29:19.945Z,7.17
2023-04-01T01:31:58.220Z,7.23
2023-04-01T01:34:32.980Z,6.20
2023-04-01T01:37:05.706Z,7.03
2023-04-01T01:39:36.359Z,5.50
2023-04-01T01:42:07.880Z,12.23
2023-04-01T01:44:37.715Z,4.40
2023-04-01T01:47:05.936Z,9.20
2023-04-01T01:49:35.876Z,7.00
2023-04-01T01:52:05.718Z,5.27
2023-04-01T01:54:33.477Z,8.87
2023-04-01T01:57:08.244Z,5.17
2023-04-01T01:59:40.249Z,6.80
2023-04-01T02:02:10.696Z,5.60
2023-04-01T02:04:41.015Z,7.23
2023-04-01T02:07:16.263Z,5.53
2023-04-01T02:09:44.511Z,10.03
2023-04-01T02:12:16.134Z,6.20
2023-04-01T02:14:47.601Z,6.70
2023-04-01T02:17:18.557Z,6.70
2023-04-01T02:19:51.660Z,4.47
2023-04-01T02:22:25.628Z,6.60
2023-04-01T02:24:56.631Z,7.47
2023-04-01T02:27:24.390Z,6.17
2023-04-01T02:29:52.827Z,9.10
2023-04-01T02:32:22.170Z,8.20
2023-04-01T02:34:50.797Z,8.17
2023-04-01T02:37:20.308Z,7.47
2023-04-01T02:39:48.051Z,6.50
2023-04-01T02:42:16.517Z,5.97
2023-04-01T02:44:44.269Z,8.03
2023-04-01T02:47:12.036Z,9.43
2023-04-01T02:49:39.760Z,9.30
2023-04-01T02:52:07.499Z,9.33
2023-04-01T02:54:36.564Z,5.80
2023-04-01T02:57:04.487Z,9.63
2023-04-01T02:59:32.233Z,6.87
2023-04-01T03:01:59.978Z,6.60
2023-04-01T03:04:27.718Z,5.47
2023-04-01T03:06:56.345Z,10.23
2023-04-01T03:09:24.079Z,7.60
2023-04-01T03:11:53.124Z,7.37
2023-04-01T03:14:20.854Z,10.47
2023-04-01T03:16:48.666Z,7.13
2023-04-01T03:19:16.454Z,9.00
2023-04-01T03:21:44.174Z,9.67
2023-04-01T03:24:11.968Z,8.87
2023-04-01T03:26:39.733Z,6.63
2023-04-01T03:29:08.784Z,7.33
2023-04-01T03:31:36.521Z,7.50
2023-04-01T03:34:04.251Z,9.03
2023-04-01T03:36:31.992Z,11.93
2023-04-01T03:38:59.763Z,10.17
2023-04-01T03:41:27.929Z,8.97
2023-04-01T03:43:55.968Z,14.77
2023-04-01T03:46:25.180Z,13.73
2023-04-01T03:48:53.024Z,8.40
2023-04-01T03:51:20.989Z,8.30
2023-04-01T03:53:48.725Z,9.37
2023-04-01T03:56:16.476Z,6.00
2023-04-01T03:58:44.189Z,7.07
2023-04-01T04:01:19.936Z,7.80
2023-04-01T04:03:52.741Z,7.83
2023-04-01T04:06:21.582Z,10.40
2023-04-01T04:08:49.322Z,6.93
2023-04-01T04:11:17.127Z,6.47
2023-04-01T04:13:45.391Z,10.50
2023-04-01T04:16:13.371Z,8.97
2023-04-01T04:18:41.178Z,8.03
2023-04-01T04:21:14.188Z,9.03
2023-04-01T04:23:41.988Z,7.87
2023-04-01T04:26:11.867Z,11.40
2023-04-01T04:28:40.067Z,4.93
2023-04-01T04:31:08.781Z,9.10
2023-04-01T04:33:36.877Z,8.77
2023-04-01T04:36:06.141Z,7.87
2023-04-01T04:38:35.257Z,7.20
2023-04-01T04:41:02.987Z,5.47
2023-04-01T04:43:30.759Z,6.70
2023-04-01T04:45:58.496Z,7.30
2023-04-01T04:48:26.269Z,8.73
2023-04-01T04:50:53.984Z,7.93
2023-04-01T04:53:21.723Z,8.83
2023-04-01T04:55:52.083Z,6.77
2023-04-01T04:58:20.398Z,10.47
2023-04-01T05:00:49.117Z,6.67
2023-04-01T05:03:16.951Z,10.20
2023-04-01T05:05:51.545Z,10.50
2023-04-01T05:08:19.541Z,9.10
2023-04-01T05:10:47.494Z,3.97
2023-04-01T05:13:16.545Z,6.67
2023-04-01T05:15:44.398Z,7.67
2023-04-01T05:18:12.117Z,6.40
2023-04-01T05:20:39.968Z,6.37
2023-04-01T05:23:07.718Z,8.80
2023-04-01T05:25:35.792Z,6.40
2023-04-01T05:28:03.598Z,13.77
2023-04-01T05:30:32.709Z,10.20
2023-04-01T05:33:00.689Z,10.57
2023-04-01T05:35:28.560Z,7.07
2023-04-01T05:37:56.385Z,10.37
2023-04-01T05:40:24.300Z,9.60
2023-04-01T05:42:52.008Z,11.30
2023-04-01T05:45:19.798Z,8.00
2023-04-01T05:47:48.993Z,9.23
2023-04-01T05:50:17.353Z,6.03
2023-04-01T05:52:45.606Z,10.27
2023-04-01T05:55:13.768Z,8.30
2023-04-01T05:57:41.828Z,10.27
2023-04-01T06:00:10.398Z,7.90
2023-04-01T06:02:39.304Z,10.43
2023-04-01T06:05:16.879Z,6.70
2023-04-01T06:07:44.622Z,7.37
2023-04-01T06:10:15.795Z,10.17
2023-04-01T06:12:53.842Z,6.40
2023-04-01T06:15:33.125Z,8.10
2023-04-01T06:18:37.009Z,5.80
2023-04-01T06:21:22.341Z,5.40
2023-04-01T06:24:02.941Z,6.50
2023-04-01T06:26:39.617Z,7.00
2023-04-01T06:29:45.356Z,5.20
2023-04-01T06:32:32.126Z,5.40
2023-04-01T06:35:27.709Z,5.90
2023-04-01T06:38:09.149Z,6.60
2023-04-01T06:41:07.880Z,6.73
2023-04-01T06:43:46.982Z,7.23
2023-04-01T06:46:21.798Z,9.27
2023-04-01T06:49:04.101Z,6.57
2023-04-01T06:51:41.070Z,8.73
2023-04-01T06:54:14.482Z,4.83
2023-04-01T06:56:47.367Z,8.10
2023-04-01T06:59:19.502Z,6.83
2023-04-01T07:01:52.600Z,7.67
2023-04-01T07:04:24.959Z,7.60
2023-04-01T07:06:55.911Z,5.37
2023-04-01T07:09:28.815Z,7.30
2023-04-01T07:12:02.487Z,6.27
2023-04-01T07:14:35.000Z,8.13
2023-04-01T07:17:10.806Z,8.10
2023-04-01T07:19:46.970Z,6.63
2023-04-01T07:22:25.551Z,5.50
2023-04-01T07:24:55.921Z,8.20
2023-04-01T07:27:24.925Z,6.03
2023-04-01T07:29:53.174Z,3.87
2023-04-01T07:32:30.597Z,4.83
2023-04-01T07:35:08.803Z,5.30
2023-04-01T07:37:43.266Z,3.60
2023-04-01T07:40:23.026Z,3.70
2023-04-01T07:43:08.631Z,5.70
2023-04-01T07:45:43.120Z,4.28
2023-04-01T07:48:22.582Z,3.72
2023-04-01T07:50:59.342Z,5.07
2023-04-01T07:53:35.711Z,6.43
2023-04-01T07:56:12.262Z,3.78
2023-04-01T07:58:54.672Z,4.70
2023-04-01T08:01:29.802Z,5.87
2023-04-01T08:04:21.189Z,4.00
2023-04-01T08:06:56.881Z,4.63
2023-04-01T08:09:31.665Z,3.00
2023-04-01T08:12:10.637Z,5.00
2023-04-01T08:14:48.323Z,3.90
2023-04-01T08:17:21.497Z,5.53
2023-04-01T08:20:00.050Z,4.93
2023-04-01T08:22:31.342Z,7.10
2023-04-01T08:25:04.176Z,3.73
2023-04-01T08:27:39.763Z,4.77
2023-04-01T08:30:19.637Z,4.77
2023-04-01T08:32:53.126Z,5.50
2023-04-01T08:35:29.820Z,4.47
2023-04-01T08:38:03.015Z,3.90
2023-04-01T08:41:00.169Z,5.28
2023-04-01T08:43:53.269Z,5.60
2023-04-01T08:46:50.386Z,5.07
2023-04-01T08:49:36.700Z,6.55
2023-04-01T08:52:23.582Z,5.15
2023-04-01T08:55:21.844Z,4.03
2023-04-01T08:58:02.357Z,4.47
2023-04-01T09:00:34.210Z,5.28
2023-04-01T09:03:32.064Z,6.25
2023-04-01T09:06:19.398Z,4.18
2023-04-01T09:09:03.753Z,3.47
2023-04-01T09:11:43.919Z,3.40
2023-04-01T09:14:42.181Z,5.15
2023-04-01T09:17:37.500Z,4.63
2023-04-01T09:20:21.084Z,6.97
2023-04-01T09:23:07.692Z,3.20
2023-04-01T09:25:47.874Z,2.85
2023-04-01T09:28:20.261Z,3.08
2023-04-01T09:31:14.152Z,2.57
2023-04-01T09:34:11.861Z,2.53
2023-04-01T09:36:46.980Z,4.15
2023-04-01T09:39:28.300Z,5.03
2023-04-01T09:42:17.174Z,4.32
2023-04-01T09:44:54.737Z,4.03
2023-04-01T09:47:42.448Z,4.07
2023-04-01T09:50:41.327Z,5.70
2023-04-01T09:53:23.312Z,2.80
2023-04-01T09:56:25.716Z,4.07
2023-04-01T09:59:39.805Z,4.40
2023-04-01T10:02:59.579Z,4.30
2023-04-01T10:06:04.678Z,5.25
2023-04-01T10:09:28.586Z,3.05
2023-04-01T10:12:32.908Z,6.15
2023-04-01T10:15:39.988Z,4.05
2023-04-01T10:18:39.822Z,3.47
2023-04-01T10:21:25.275Z,2.85
2023-04-01T10:24:14.077Z,3.30
2023-04-01T10:27:03.711Z,4.68
2023-04-01T10:30:07.167Z,2.63
2023-04-01T10:33:06.468Z,3.17
2023-04-01T10:36:12.697Z,2.70
2023-04-01T10:39:19.255Z,2.83
2023-04-01T10:42:22.753Z,1.30
2023-04-01T10:45:25.318Z,2.25
2023-04-01T10:48:14.286Z,3.83
2023-04-01T10:51:11.299Z,4.43
2023-04-01T10:54:10.977Z,2.33
2023-04-01T10:56:42.415Z,3.22
2023-04-01T10:59:40.059Z,3.70
2023-04-01T11:02:47.751Z,4.13
2023-04-01T11:05:52.691Z,3.13
2023-04-01T11:09:02.547Z,3.00
2023-04-01T11:12:00.611Z,2.33
2023-04-01T11:15:05.041Z,2.83
2023-04-01T11:18:21.427Z,1.98
2023-04-01T11:21:27.974Z,2.58
2023-04-01T11:24:11.225Z,3.70
2023-04-01T11:26:54.631Z,2.95
2023-04-01T11:29:59.248Z,2.80
2023-04-01T11:32:44.063Z,4.10
2023-04-01T11:35:51.933Z,2.85
2023-04-01T11:38:37.836Z,2.55
2023-04-01T11:41:17.469Z,2.40
2023-04-01T11:43:51.400Z,5.03
2023-04-01T11:46:26.162Z,2.50
2023-04-01T11:49:04.855Z,2.22
2023-04-01T11:52:03.286Z,3.20
2023-04-01T11:55:11.278Z,1.80
2023-04-01T11:57:51.107Z,1.90
2023-04-01T12:00:45.914Z,1.63
2023-04-01T12:03:32.805Z,3.53
2023-04-01T12:06:07.221Z,1.60
2023-04-01T12:08:46.603Z,3.05
2023-04-01T12:11:19.621Z,1.67
2023-04-01T12:13:55.582Z,2.20
2023-04-01T12:16:44.996Z,2.07
2023-04-01T12:19:21.516Z,3.10
2023-04-01T12:22:06.813Z,2.50
2023-04-01T12:24:49.802Z,3.33
2023-04-01T12:27:31.814Z,2.80
2023-04-01T12:30:20.408Z,2.80
2023-04-01T12:32:57.964Z,4.03
2023-04-01T12:35:32.072Z,2.77
2023-04-01T12:38:29.218Z,2.77
2023-04-01T12:41:12.039Z,2.80
2023-04-01T12:44:11.396Z,2.87
2023-04-01T12:46:52.531Z,2.47
2023-04-01T12:49:50.036Z,3.30
2023-04-01T12:52:26.740Z,3.80
2023-04-01T12:55:29.145Z,3.00
2023-04-01T12:58:48.114Z,2.50
2023-04-01T13:01:32.200Z,3.50
2023-04-01T13:04:32.698Z,3.50
2023-04-01T13:07:24.433Z,2.70
2023-04-01T13:09:59.511Z,3.90
2023-04-01T13:12:52.812Z,3.03
2023-04-01T13:15:28.284Z,2.83
2023-04-01T13:18:05.072Z,3.33
2023-04-01T13:20:44.895Z,3.17
2023-04-01T13:23:26.136Z,3.73
2023-04-01T13:26:12.985Z,3.73
2023-04-01T13:28:49.335Z,3.77
2023-04-01T13:31:40.455Z,3.27
2023-04-01T13:34:20.761Z,3.17
2023-04-01T13:37:01.818Z,4.07
2023-04-01T13:39:44.765Z,3.63
2023-04-01T13:42:29.036Z,3.67
2023-04-01T13:45:03.788Z,3.63
2023-04-01T13:48:08.933Z,3.50
2023-04-01T13:50:50.372Z,7.20
2023-04-01T13:53:36.838Z,3.40
2023-04-01T13:56:16.990Z,3.50
2023-04-01T13:59:03.417Z,3.93
2023-04-01T14:01:42.987Z,3.70
2023-04-01T14:04:34.316Z,4.00
2023-04-01T14:07:11.131Z,4.13
2023-04-01T14:10:04.113Z,4.23
2023-04-01T14:12:37.322Z,4.23
2023-04-01T14:15:23.124Z,4.80
2023-04-01T14:18:03.109Z,3.90
2023-04-01T14:20:53.376Z,4.00
2023-04-01T14:23:39.941Z,3.90
2023-04-01T14:26:38.340Z,3.80
2023-04-01T14:29:18.728Z,3.17
2023-04-01T14:31:56.653Z,3.90
2023-04-01T14:34:37.007Z,3.77
2023-04-01T14:37:17.035Z,3.40
2023-04-01T14:40:29.827Z,3.23
2023-04-01T14:43:22.572Z,3.90
2023-04-01T14:46:06.590Z,3.83
2023-04-01T14:48:36.745Z,3.70
2023-04-01T14:51:15.668Z,3.73
2023-04-01T14:53:47.773Z,3.27
2023-04-01T14:56:42.909Z,4.17
2023-04-01T14:59:27.844Z,3.80
2023-04-01T15:02:03.450Z,3.73
2023-04-01T15:04:56.591Z,4.03
2023-04-01T15:07:50.918Z,4.73
2023-04-01T15:10:36.475Z,3.83
2023-04-01T15:13:14.497Z,3.70
2023-04-01T15:15:58.598Z,3.50
2023-04-01T15:18:34.803Z,3.60
2023-04-01T15:21:18.913Z,3.90
2023-04-01T15:24:05.690Z,3.33
2023-04-01T15:26:49.408Z,3.53
2023-04-01T15:29:35.253Z,3.60
2023-04-01T15:32:08.177Z,2.90
2023-04-01T15:34:47.882Z,3.20
2023-04-01T15:37:21.746Z,4.03
2023-04-01T15:39:59.673Z,3.07
2023-04-01T15:42:40.796Z,3.40
2023-04-01T15:45:24.500Z,2.63
2023-04-01T15:48:03.250Z,3.20
2023-04-01T15:50:57.817Z,2.60
2023-04-01T15:53:37.388Z,3.37
2023-04-01T15:56:20.432Z,2.47
2023-04-01T15:58:58.176Z,2.40
2023-04-01T16:01:37.415Z,3.33
2023-04-01T16:04:23.351Z,3.47
2023-04-01T16:07:04.597Z,2.27
2023-04-01T16:09:50.670Z,3.30
2023-04-01T16:12:24.359Z,2.73
2023-04-01T16:15:10.564Z,3.23
2023-04-01T16:17:59.834Z,3.67
2023-04-01T16:20:44.505Z,2.60
2023-04-01T16:23:20.441Z,2.63
2023-04-01T16:25:54.806Z,3.90
2023-04-01T16:28:29.457Z,2.83
2023-04-01T16:31:06.389Z,3.50
2023-04-01T16:33:49.174Z,2.63
2023-04-01T16:36:26.735Z,2.87
2023-04-01T16:39:04.148Z,3.30
2023-04-01T16:41:35.489Z,3.83
2023-04-01T16:44:19.746Z,4.50
2023-04-01T16:46:52.240Z,3.07
2023-04-01T16:49:34.994Z,3.70
2023-04-01T16:52:16.922Z,4.13
2023-04-01T16:54:52.239Z,4.67
2023-04-01T16:57:23.785Z,3.73
2023-04-01T17:00:02.013Z,5.10
2023-04-01T17:02:35.820Z,3.87
2023-04-01T17:05:07.406Z,5.03
2023-04-01T17:07:48.594Z,4.67
2023-04-01T17:10:42.627Z,4.20
2023-04-01T17:13:36.928Z,3.53
2023-04-01T17:16:26.670Z,3.97
2023-04-01T17:19:02.776Z,3.50
2023-04-01T17:21:52.842Z,4.57
2023-04-01T17:24:31.521Z,5.33
2023-04-01T17:27:07.228Z,4.93
2023-04-01T17:29:56.354Z,5.57
2023-04-01T17:32:39.447Z,5.90
2023-04-01T17:35:11.517Z,5.23
2023-04-01T17:37:51.788Z,6.27
2023-04-01T17:40:51.817Z,7.10
2023-04-01T17:43:30.228Z,8.27
2023-04-01T17:45:59.993Z,6.17
2023-04-01T17:48:40.726Z,4.37
2023-04-01T17:51:26.947Z,4.47
2023-04-01T17:54:01.720Z,3.60
2023-04-01T17:56:47.589Z,3.70
2023-04-01T17:59:25.124Z,5.60
2023-04-01T18:02:03.426Z,5.60
2023-04-01T18:04:59.302Z,6.00
2023-04-01T18:07:48.849Z,5.80
2023-04-01T18:10:27.380Z,4.73
2023-04-01T18:13:13.978Z,4.30
2023-04-01T18:15:47.790Z,5.23
2023-04-01T18:18:36.677Z,5.33
2023-04-01T18:21:16.126Z,4.53
2023-04-01T18:23:59.058Z,5.37
2023-04-01T18:26:34.036Z,5.50
2023-04-01T18:29:13.049Z,6.07
2023-04-01T18:31:44.162Z,5.93
2023-04-01T18:34:19.650Z,6.33
2023-04-01T18:36:52.965Z,5.30
2023-04-01T18:39:25.943Z,4.67
2023-04-01T18:42:01.820Z,4.97
2023-04-01T18:44:39.399Z,5.07
2023-04-01T18:47:25.696Z,6.47
2023-04-01T18:50:01.393Z,7.67
2023-04-01T18:52:36.602Z,6.13
2023-04-01T18:55:40.146Z,7.17
2023-04-01T18:58:21.428Z,6.97
2023-04-01T19:00:56.832Z,6.43
2023-04-01T19:03:29.781Z,8.40
2023-04-01T19:06:01.914Z,6.70
2023-04-01T19:08:33.607Z,7.67
2023-04-01T19:11:12.210Z,7.30
2023-04-01T19:13:49.276Z,7.53
2023-04-01T19:16:28.623Z,7.33
2023-04-01T19:19:10.174Z,8.07
2023-04-01T19:21:44.364Z,8.23
2023-04-01T19:24:41.532Z,8.27
2023-04-01T19:27:20.244Z,6.73
2023-04-01T19:30:03.833Z,7.47
2023-04-01T19:32:43.372Z,6.63
2023-04-01T19:35:28.259Z,7.30
2023-04-01T19:38:01.307Z,8.60
2023-04-01T19:40:52.559Z,7.20
2023-04-01T19:43:38.524Z,6.93
2023-04-01T19:46:16.139Z,7.27
2023-04-01T19:48:58.063Z,8.23
2023-04-01T19:51:33.715Z,7.17
2023-04-01T19:54:07.466Z,7.53
2023-04-01T19:56:42.262Z,8.50
2023-04-01T19:59:19.147Z,7.83
2023-04-01T20:01:53.231Z,7.90
2023-04-01T20:04:27.290Z,9.67
2023-04-01T20:07:02.090Z,8.53
2023-04-01T20:09:53.300Z,7.37
2023-04-01T20:12:35.513Z,10.17
2023-04-01T20:15:06.211Z,10.87
2023-04-01T20:17:43.026Z,11.13
2023-04-01T20:20:22.622Z,8.73
2023-04-01T20:23:07.083Z,8.13
2023-04-01T20:25:43.922Z,9.87
2023-04-01T20:28:22.283Z,9.20
2023-04-01T20:31:03.806Z,7.03
2023-04-01T20:33:48.663Z,8.77
2023-04-01T20:36:26.017Z,8.87
2023-04-01T20:39:22.178Z,10.77
2023-04-01T20:42:06.652Z,8.10
2023-04-01T20:44:41.853Z,8.50
2023-04-01T20:47:21.880Z,8.83
2023-04-01T20:50:00.407Z,8.83
2023-04-01T20:52:39.591Z,10.60
2023-04-01T20:55:37.434Z,9.17
2023-04-01T20:58:14.073Z,9.30
2023-04-01T21:00:53.878Z,10.13
2023-04-01T21:03:35.468Z,12.63
2023-04-01T21:06:29.047Z,13.07
2023-04-01T21:09:09.934Z,11.30
2023-04-01T21:11:43.515Z,10.43
2023-04-01T21:14:37.461Z,9.60
2023-04-01T21:17:15.386Z,9.17
2023-04-01T21:20:00.820Z,9.07
2023-04-01T21:22:47.377Z,9.87
2023-04-01T21:25:37.908Z,11.50
2023-04-01T21:28:31.699Z,13.30
2023-04-01T21:31:14.936Z,12.00
2023-04-01T21:33:58.720Z,16.10
2023-04-01T21:36:37.871Z,14.30
2023-04-01T21:39:24.640Z,12.90
2023-04-01T21:42:06.571Z,10.17
2023-04-01T21:44:55.966Z,10.83
2023-04-01T21:47:56.371Z,13.23
2023-04-01T21:51:02.288Z,14.80
2023-04-01T21:53:55.985Z,13.13
2023-04-01T21:56:51.877Z,14.77
2023-04-01T21:59:52.926Z,11.33
2023-04-01T22:02:44.753Z,10.40
2023-04-01T22:05:15.542Z,11.60
2023-04-01T22:07:49.710Z,11.10
2023-04-01T22:10:29.950Z,13.50
2023-04-01T22:13:09.397Z,11.27
2023-04-01T22:15:56.525Z,12.13
2023-04-01T22:18:29.941Z,9.20
2023-04-01T22:21:06.241Z,8.10
2023-04-01T22:23:44.434Z,10.03
2023-04-01T22:26:17.612Z,12.20
2023-04-01T22:28:53.289Z,11.87
2023-04-01T22:31:26.673Z,9.77
2023-04-01T22:34:01.606Z,9.97
2023-04-01T22:36:39.312Z,8.50
2023-04-01T22:39:25.989Z,9.77
2023-04-01T22:42:07.210Z,11.33
2023-04-01T22:44:50.089Z,10.83
2023-04-01T22:47:28.363Z,11.17
2023-04-01T22:50:03.354Z,10.13
2023-04-01T22:52:37.729Z,11.13
2023-04-01T22:55:12.632Z,10.87
2023-04-01T22:57:49.962Z,10.17
2023-04-01T23:00:22.650Z,8.93
2023-04-01T23:03:08.984Z,8.47
2023-04-01T23:05:42.711Z,8.30
2023-04-01T23:08:44.179Z,7.60
2023-04-01T23:11:18.191Z,10.03
2023-04-01T23:13:53.591Z,9.00
2023-04-01T23:16:26.755Z,8.17
2023-04-01T23:18:59.809Z,8.80
2023-04-01T23:21:37.642Z,11.47
2023-04-01T23:24:13.141Z,10.13
2023-04-01T23:26:52.645Z,9.27
2023-04-01T23:29:22.392Z,7.70
2023-04-01T23:31:58.088Z,6.63
2023-04-01T23:34:33.747Z,6.17
2023-04-01T23:37:05.615Z,8.03
2023-04-01T23:39:36.729Z,9.50
2023-04-01T23:42:08.584Z,8.10
2023-04-01T23:44:38.239Z,7.00
2023-04-01T23:47:09.927Z,7.23
2023-04-01T23:49:41.886Z,7.93
2023-04-01T23:52:19.250Z,6.27
2023-04-01T23:54:51.482Z,7.10
2023-04-01T23:57:26.025Z,9.93
